createdAt,value
2018-01-23T00:00:51.020Z,24.23
2018-01-23T00:03:18.620Z,20.20
2018-01-23T00:05:46.217Z,11.23
2018-01-23T00:08:14.592Z,19.13
2018-01-23T00:10:42.223Z,22.90
2018-01-23T00:13:09.833Z,14.30
2018-01-23T00:15:38.195Z,14.63
2018-01-23T00:18:05.791Z,18.40
2018-01-23T00:20:33.496Z,13.97
2018-01-23T00:23:01.138Z,17.03
2018-01-23T00:25:28.741Z,16.40
2018-01-23T00:27:56.330Z,15.77
2018-01-23T00:30:23.973Z,18.77
2018-01-23T00:32:51.567Z,17.83
2018-01-23T00:35:19.156Z,20.50
2018-01-23T00:37:46.778Z,14.33
2018-01-23T00:40:14.376Z,19.97
2018-01-23T00:42:42.750Z,19.83
2018-01-23T00:45:10.337Z,22.20
2018-01-23T00:47:37.942Z,16.50
2018-01-23T00:50:05.548Z,25.13
2018-01-23T00:52:33.924Z,18.43
2018-01-23T00:55:02.310Z,21.80
2018-01-23T00:57:30.691Z,24.47
2018-01-23T00:59:58.318Z,24.33
2018-01-23T01:02:25.960Z,21.20
2018-01-23T01:04:53.556Z,21.57
2018-01-23T01:07:21.156Z,23.90
2018-01-23T01:09:48.761Z,27.37
2018-01-23T01:12:16.371Z,24.73
2018-01-23T01:14:44.047Z,22.47
2018-01-23T01:17:11.652Z,19.90
2018-01-23T01:19:39.263Z,21.63
2018-01-23T01:22:06.876Z,19.97
2018-01-23T01:24:35.244Z,21.50
2018-01-23T01:27:03.788Z,24.73
2018-01-23T01:29:31.401Z,21.50
2018-01-23T01:31:59.767Z,16.83
2018-01-23T01:34:27.395Z,21.50
2018-01-23T01:36:54.991Z,19.13
2018-01-23T01:39:24.094Z,22.33
2018-01-23T01:41:51.719Z,25.50
2018-01-23T01:44:19.319Z,20.90
2018-01-23T01:46:47.005Z,22.10
2018-01-23T01:49:15.365Z,18.87
2018-01-23T01:51:42.991Z,25.10
2018-01-23T01:54:10.585Z,20.50
2018-01-23T01:56:38.169Z,27.93
2018-01-23T01:59:06.559Z,41.37
2018-01-23T02:01:34.921Z,24.30
2018-01-23T02:04:02.543Z,20.23
2018-01-23T02:06:30.142Z,32.57
2018-01-23T02:08:58.141Z,25.70
2018-01-23T02:11:25.907Z,22.17
2018-01-23T02:13:53.529Z,16.13
2018-01-23T02:16:21.162Z,23.30
2018-01-23T02:18:49.519Z,15.90
2018-01-23T02:21:18.671Z,14.53
2018-01-23T02:23:46.322Z,11.63
2018-01-23T02:26:14.711Z,12.00
2018-01-23T02:28:42.309Z,13.00
2018-01-23T02:31:09.936Z,19.20
2018-01-23T02:33:38.294Z,15.47
2018-01-23T02:36:05.878Z,15.33
2018-01-23T02:38:34.271Z,13.30
2018-01-23T02:41:01.855Z,12.53
2018-01-23T02:43:29.483Z,17.17
2018-01-23T02:45:57.860Z,19.30
2018-01-23T02:48:26.276Z,18.00
2018-01-23T02:50:53.881Z,25.27
2018-01-23T02:53:21.491Z,19.63
2018-01-23T02:55:49.907Z,15.30
2018-01-23T02:58:17.506Z,18.63
2018-01-23T03:00:45.114Z,20.77
2018-01-23T03:03:13.482Z,17.10
2018-01-23T03:05:41.862Z,21.73
2018-01-23T03:08:10.242Z,27.13
2018-01-23T03:10:38.158Z,22.80
2018-01-23T03:13:06.534Z,21.43
2018-01-23T03:15:34.137Z,24.77
2018-01-23T03:18:01.762Z,25.00
2018-01-23T03:20:29.338Z,16.07
2018-01-23T03:22:56.962Z,21.50
2018-01-23T03:25:24.552Z,18.10
2018-01-23T03:27:52.168Z,18.07
2018-01-23T03:30:19.778Z,22.07
2018-01-23T03:32:47.381Z,17.17
2018-01-23T03:35:14.988Z,17.13
2018-01-23T03:37:42.602Z,20.10
2018-01-23T03:40:10.222Z,21.00
2018-01-23T03:42:38.584Z,24.67
2018-01-23T03:45:06.213Z,24.03
2018-01-23T03:47:33.825Z,17.80
2018-01-23T03:50:02.186Z,23.10
2018-01-23T03:52:29.818Z,20.03
2018-01-23T03:54:57.423Z,16.90
2018-01-23T03:57:25.030Z,18.10
2018-01-23T03:59:53.387Z,21.53
2018-01-23T04:02:21.813Z,23.50
2018-01-23T04:04:49.406Z,21.63
2018-01-23T04:07:17.103Z,22.87
2018-01-23T04:09:46.223Z,29.37
2018-01-23T04:12:14.591Z,21.63
2018-01-23T04:14:43.073Z,29.00
2018-01-23T04:17:12.175Z,21.00
2018-01-23T04:19:39.807Z,22.30
2018-01-23T04:22:07.411Z,19.23
2018-01-23T04:24:35.809Z,19.83
2018-01-23T04:27:04.159Z,18.10
2018-01-23T04:29:32.711Z,14.47
2018-01-23T04:32:00.331Z,24.37
2018-01-23T04:34:27.924Z,20.93
2018-01-23T04:36:55.531Z,17.13
2018-01-23T04:39:23.133Z,18.03
2018-01-23T04:41:51.606Z,20.30
2018-01-23T04:44:19.416Z,21.83
2018-01-23T04:46:47.027Z,17.23
2018-01-23T04:49:14.649Z,15.03
2018-01-23T04:51:42.263Z,24.00
2018-01-23T04:54:10.664Z,16.37
2018-01-23T04:56:38.255Z,18.30
2018-01-23T04:59:05.852Z,14.07
2018-01-23T05:01:33.465Z,19.53
2018-01-23T05:04:01.946Z,13.63
2018-01-23T05:06:30.362Z,24.03
2018-01-23T05:08:57.954Z,15.03
2018-01-23T05:11:25.570Z,14.63
2018-01-23T05:13:53.951Z,23.90
2018-01-23T05:16:22.518Z,10.90
2018-01-23T05:18:50.898Z,22.90
2018-01-23T05:21:20.034Z,10.03
2018-01-23T05:23:48.484Z,12.43
2018-01-23T05:26:16.066Z,9.03
2018-01-23T05:28:44.462Z,13.17
2018-01-23T05:31:12.824Z,17.60
2018-01-23T05:33:40.448Z,12.60
2018-01-23T05:36:08.044Z,7.70
2018-01-23T05:38:36.404Z,6.50
2018-01-23T05:41:04.015Z,10.53
2018-01-23T05:43:32.378Z,9.03
2018-01-23T05:46:00.040Z,8.00
2018-01-23T05:48:27.788Z,15.27
2018-01-23T05:50:55.374Z,12.20
2018-01-23T05:53:23.002Z,11.80
2018-01-23T05:55:50.624Z,12.20
2018-01-23T05:58:18.225Z,13.30
2018-01-23T06:00:45.819Z,13.53
2018-01-23T06:03:13.479Z,10.13
2018-01-23T06:05:41.053Z,12.63
2018-01-23T06:08:08.669Z,10.17
2018-01-23T06:10:37.049Z,12.73
2018-01-23T06:13:05.412Z,9.43
2018-01-23T06:15:33.027Z,9.90
2018-01-23T06:18:00.755Z,10.07
2018-01-23T06:20:29.173Z,14.70
2018-01-23T06:22:56.787Z,15.17
2018-01-23T06:25:24.389Z,10.17
2018-01-23T06:27:52.798Z,16.27
2018-01-23T06:30:20.407Z,7.90
2018-01-23T06:32:48.801Z,11.60
2018-01-23T06:35:16.397Z,8.67
2018-01-23T06:37:43.998Z,9.47
2018-01-23T06:40:11.613Z,9.40
2018-01-23T06:42:39.972Z,8.00
2018-01-23T06:45:07.673Z,9.80
2018-01-23T06:47:35.269Z,20.23
2018-01-23T06:50:02.875Z,13.00
2018-01-23T06:52:31.444Z,14.77
2018-01-23T06:54:59.305Z,13.93
2018-01-23T06:57:27.072Z,11.60
2018-01-23T06:59:54.660Z,11.40
2018-01-23T07:02:23.123Z,10.63
2018-01-23T07:04:50.758Z,12.20
2018-01-23T07:07:18.353Z,10.90
2018-01-23T07:09:45.970Z,11.50
2018-01-23T07:12:14.377Z,13.97
2018-01-23T07:14:42.127Z,11.63
2018-01-23T07:17:10.508Z,11.90
2018-01-23T07:19:38.889Z,16.33
2018-01-23T07:22:07.521Z,11.27
2018-01-23T07:24:35.132Z,15.77
2018-01-23T07:27:03.541Z,14.03
2018-01-23T07:29:31.168Z,8.83
2018-01-23T07:31:58.752Z,8.10
2018-01-23T07:34:27.148Z,14.40
2018-01-23T07:36:54.926Z,16.07
2018-01-23T07:39:22.550Z,17.87
2018-01-23T07:41:50.909Z,10.40
2018-01-23T07:44:18.536Z,12.67
2018-01-23T07:46:46.210Z,33.13
2018-01-23T07:49:13.940Z,20.07
2018-01-23T07:51:41.527Z,8.63
2018-01-23T07:54:09.882Z,14.10
2018-01-23T07:56:38.269Z,16.67
2018-01-23T07:59:05.881Z,20.80
2018-01-23T08:01:33.634Z,11.00
2018-01-23T08:04:01.271Z,6.80
2018-01-23T08:06:29.632Z,16.73
2018-01-23T08:08:57.277Z,12.83
2018-01-23T08:11:24.865Z,14.57
2018-01-23T08:13:52.487Z,12.97
2018-01-23T08:16:20.259Z,6.70
2018-01-23T08:18:47.915Z,20.63
2018-01-23T08:21:15.506Z,13.90
2018-01-23T08:23:43.113Z,7.90
2018-01-23T08:26:10.747Z,9.33
2018-01-23T08:28:38.478Z,11.60
2018-01-23T08:31:06.101Z,8.43
2018-01-23T08:33:33.693Z,10.47
2018-01-23T08:36:02.079Z,13.90
2018-01-23T08:38:30.454Z,11.63
2018-01-23T08:40:58.083Z,8.27
2018-01-23T08:43:25.691Z,14.23
2018-01-23T08:45:54.052Z,8.23
2018-01-23T08:48:23.424Z,11.20
2018-01-23T08:50:51.024Z,11.77
2018-01-23T08:53:20.163Z,20.43
2018-01-23T08:55:48.562Z,10.13
2018-01-23T08:58:16.311Z,9.30
2018-01-23T09:00:44.678Z,9.93
2018-01-23T09:03:12.300Z,14.33
2018-01-23T09:05:40.040Z,13.43
2018-01-23T09:08:07.651Z,18.27
2018-01-23T09:10:36.051Z,17.57
2018-01-23T09:13:03.655Z,10.60
2018-01-23T09:15:31.240Z,15.47
2018-01-23T09:17:58.868Z,9.90
2018-01-23T09:20:27.264Z,17.47
2018-01-23T09:22:55.637Z,8.30
2018-01-23T09:25:24.015Z,21.40
2018-01-23T09:27:52.416Z,22.70
2018-01-23T09:30:20.006Z,9.77
2018-01-23T09:32:47.590Z,13.67
2018-01-23T09:35:15.200Z,11.27
2018-01-23T09:37:43.568Z,15.83
2018-01-23T09:40:11.970Z,9.73
2018-01-23T09:42:40.334Z,11.77
2018-01-23T09:45:08.153Z,13.40
2018-01-23T09:47:35.769Z,18.43
2018-01-23T09:50:03.355Z,10.60
2018-01-23T09:52:31.103Z,10.60
2018-01-23T09:54:59.489Z,12.23
2018-01-23T09:57:27.090Z,10.90
2018-01-23T09:59:54.727Z,15.07
2018-01-23T10:02:23.089Z,13.43
2018-01-23T10:04:51.485Z,12.60
2018-01-23T10:07:19.064Z,7.43
2018-01-23T10:09:47.453Z,31.10
2018-01-23T10:12:15.911Z,12.97
2018-01-23T10:14:45.065Z,10.03
2018-01-23T10:17:12.679Z,15.47
2018-01-23T10:19:40.264Z,9.70
2018-01-23T10:22:08.627Z,16.93
2018-01-23T10:24:37.069Z,5.93
2018-01-23T10:27:04.667Z,10.27
2018-01-23T10:29:33.032Z,7.70
2018-01-23T10:32:00.643Z,17.57
2018-01-23T10:34:29.025Z,10.13
2018-01-23T10:36:57.543Z,8.87
2018-01-23T10:39:25.254Z,13.10
2018-01-23T10:41:54.391Z,8.20
2018-01-23T10:44:22.764Z,8.67
2018-01-23T10:46:51.196Z,8.20
2018-01-23T10:49:18.794Z,7.60
2018-01-23T10:51:46.396Z,17.47
2018-01-23T10:54:14.064Z,8.57
2018-01-23T10:56:41.660Z,6.20
2018-01-23T10:59:09.304Z,9.90
2018-01-23T11:01:40.779Z,7.97
2018-01-23T11:04:08.437Z,6.00
2018-01-23T11:06:36.019Z,9.73
2018-01-23T11:09:03.586Z,8.40
2018-01-23T11:11:31.217Z,6.23
2018-01-23T11:13:58.917Z,12.20
2018-01-23T11:16:26.536Z,9.13
2018-01-23T11:18:54.136Z,5.13
2018-01-23T11:21:21.883Z,5.57
2018-01-23T11:23:49.525Z,11.00
2018-01-23T11:26:17.902Z,3.93
2018-01-23T11:28:46.328Z,7.37
2018-01-23T11:31:13.907Z,5.50
2018-01-23T11:33:42.323Z,4.47
2018-01-23T11:36:09.937Z,7.40
2018-01-23T11:38:37.675Z,8.67
2018-01-23T11:41:06.026Z,9.83
2018-01-23T11:43:33.814Z,6.47
2018-01-23T11:46:01.448Z,5.43
2018-01-23T11:48:29.065Z,7.70
2018-01-23T11:50:57.429Z,6.37
2018-01-23T11:53:25.248Z,4.10
2018-01-23T11:55:52.830Z,6.03
2018-01-23T11:58:20.463Z,9.40
2018-01-23T12:00:48.033Z,9.80
2018-01-23T12:03:15.663Z,10.13
2018-01-23T12:05:43.270Z,8.50
2018-01-23T12:08:10.867Z,9.30
2018-01-23T12:10:38.475Z,12.90
2018-01-23T12:13:06.845Z,6.97
2018-01-23T12:15:35.226Z,7.07
2018-01-23T12:18:02.820Z,7.70
2018-01-23T12:20:30.454Z,29.23
2018-01-23T12:22:58.099Z,9.43
2018-01-23T12:25:25.721Z,20.53
2018-01-23T12:27:53.349Z,17.50
2018-01-23T12:30:20.957Z,12.20
2018-01-23T12:32:48.579Z,7.47
2018-01-23T12:35:16.181Z,13.57
2018-01-23T12:37:43.798Z,6.07
2018-01-23T12:40:11.358Z,7.00
2018-01-23T12:42:38.994Z,2.83
2018-01-23T12:45:06.618Z,7.50
2018-01-23T12:47:34.220Z,9.63
2018-01-23T12:50:01.836Z,3.50
2018-01-23T12:52:30.284Z,8.17
2018-01-23T12:54:57.936Z,4.60
2018-01-23T12:57:25.552Z,4.20
2018-01-23T12:59:53.150Z,5.70
2018-01-23T13:02:21.532Z,5.90
2018-01-23T13:04:50.111Z,4.00
2018-01-23T13:07:18.531Z,14.30
2018-01-23T13:09:46.245Z,7.40
2018-01-23T13:12:13.847Z,4.03
2018-01-23T13:14:41.455Z,3.30
2018-01-23T13:17:09.104Z,7.07
2018-01-23T13:19:36.751Z,5.57
2018-01-23T13:22:04.355Z,4.73
2018-01-23T13:24:31.982Z,6.03
2018-01-23T13:26:59.707Z,6.90
2018-01-23T13:29:27.411Z,6.30
2018-01-23T13:31:55.026Z,4.10
2018-01-23T13:34:22.641Z,7.77
2018-01-23T13:36:50.296Z,7.00
2018-01-23T13:39:18.705Z,4.80
2018-01-23T13:41:46.340Z,4.00
2018-01-23T13:44:14.711Z,5.03
2018-01-23T13:46:42.313Z,5.33
2018-01-23T13:49:09.907Z,4.50
2018-01-23T13:51:37.516Z,15.83
2018-01-23T13:54:05.909Z,7.17
2018-01-23T13:56:34.269Z,10.80
2018-01-23T13:59:02.671Z,7.23
2018-01-23T14:01:31.115Z,5.63
2018-01-23T14:03:58.730Z,7.53
2018-01-23T14:06:27.123Z,7.50
2018-01-23T14:08:54.752Z,10.60
2018-01-23T14:11:22.372Z,10.80
2018-01-23T14:13:49.993Z,10.33
2018-01-23T14:16:17.635Z,12.83
2018-01-23T14:18:45.248Z,10.77
2018-01-23T14:21:12.877Z,24.93
2018-01-23T14:23:41.253Z,30.90
2018-01-23T14:26:08.867Z,25.13
2018-01-23T14:28:36.539Z,19.63
2018-01-23T14:31:04.152Z,13.83
2018-01-23T14:33:31.998Z,9.57
2018-01-23T14:35:59.624Z,11.37
2018-01-23T14:38:27.355Z,12.20
2018-01-23T14:40:54.978Z,11.97
2018-01-23T14:43:22.582Z,46.57
2018-01-23T14:45:50.230Z,10.30
2018-01-23T14:48:17.824Z,11.47
2018-01-23T14:50:45.454Z,58.50
2018-01-23T14:53:13.053Z,125.73
2018-01-23T14:55:40.670Z,139.87
2018-01-23T14:58:08.287Z,118.67
2018-01-23T15:00:35.890Z,79.07
2018-01-23T15:03:03.750Z,57.53
2018-01-23T15:05:32.135Z,66.07
2018-01-23T15:08:00.533Z,53.80
2018-01-23T15:10:28.117Z,59.80
2018-01-23T15:12:55.729Z,54.77
2018-01-23T15:15:24.138Z,44.60
2018-01-23T15:17:52.646Z,25.13
2018-01-23T15:20:20.257Z,18.83
2018-01-23T15:22:48.007Z,13.23
2018-01-23T15:25:15.645Z,14.93
2018-01-23T15:27:43.305Z,21.43
2018-01-23T15:30:10.905Z,24.93
2018-01-23T15:32:38.499Z,34.43
2018-01-23T15:35:06.132Z,51.57
2018-01-23T15:37:33.745Z,30.93
2018-01-23T15:40:02.140Z,31.07
2018-01-23T15:42:30.520Z,38.53
2018-01-23T15:44:58.946Z,21.60
2018-01-23T15:47:26.578Z,23.13
2018-01-23T15:49:54.370Z,22.33
2018-01-23T15:52:22.051Z,17.37
2018-01-23T15:54:49.639Z,17.87
2018-01-23T15:57:17.261Z,20.93
2018-01-23T15:59:45.003Z,14.60
2018-01-23T16:02:13.373Z,15.03
2018-01-23T16:04:41.039Z,20.83
2018-01-23T16:07:08.703Z,19.27
2018-01-23T16:09:36.577Z,29.03
2018-01-23T16:12:04.197Z,19.20
2018-01-23T16:14:31.859Z,22.77
2018-01-23T16:16:59.494Z,27.93
2018-01-23T16:19:27.893Z,22.67
2018-01-23T16:21:55.571Z,122.73
2018-01-23T16:24:23.204Z,475.57
2018-01-23T16:26:51.816Z,520.90
2018-01-23T16:29:19.478Z,424.13
2018-01-23T16:31:47.124Z,406.17
2018-01-23T16:34:15.535Z,211.57
2018-01-23T16:36:43.202Z,231.23
2018-01-23T16:39:10.823Z,135.63
2018-01-23T16:41:39.219Z,121.07
2018-01-23T16:44:06.834Z,106.53
2018-01-23T16:46:34.482Z,66.33
2018-01-23T16:49:02.835Z,22.27
2018-01-23T16:51:31.239Z,14.67
2018-01-23T16:53:58.858Z,10.90
2018-01-23T16:56:26.486Z,14.17
2018-01-23T16:58:54.079Z,15.67
2018-01-23T17:01:21.755Z,16.07
2018-01-23T17:03:49.374Z,18.43
2018-01-23T17:06:16.966Z,22.07
2018-01-23T17:08:44.713Z,21.10
2018-01-23T17:11:12.379Z,29.40
2018-01-23T17:13:39.996Z,19.67
2018-01-23T17:16:08.468Z,25.13
2018-01-23T17:18:36.078Z,15.13
2018-01-23T17:21:04.478Z,17.73
2018-01-23T17:23:32.113Z,18.00
2018-01-23T17:25:59.759Z,23.60
2018-01-23T17:28:28.898Z,22.47
2018-01-23T17:30:57.365Z,20.73
2018-01-23T17:33:25.771Z,26.43
2018-01-23T17:35:54.150Z,29.00
2018-01-23T17:38:22.577Z,28.53
2018-01-23T17:40:50.227Z,38.03
2018-01-23T17:43:17.911Z,29.27
2018-01-23T17:45:45.508Z,26.13
2018-01-23T17:48:13.151Z,28.30
2018-01-23T17:50:40.787Z,30.93
2018-01-23T17:53:08.440Z,44.00
2018-01-23T17:55:36.100Z,104.23
2018-01-23T17:58:04.467Z,40.00
2018-01-23T18:00:35.795Z,48.57
2018-01-23T18:03:03.452Z,28.60
2018-01-23T18:05:31.126Z,33.77
2018-01-23T18:08:00.349Z,24.67
2018-01-23T18:10:28.770Z,40.17
2018-01-23T18:12:56.550Z,28.87
2018-01-23T18:15:24.184Z,25.80
2018-01-23T18:17:52.590Z,21.00
2018-01-23T18:20:20.344Z,24.47
2018-01-23T18:22:48.204Z,28.37
2018-01-23T18:25:16.625Z,16.43
2018-01-23T18:27:44.288Z,21.33
2018-01-23T18:30:11.948Z,17.63
2018-01-23T18:32:39.670Z,19.63
2018-01-23T18:35:08.103Z,13.83
2018-01-23T18:37:35.785Z,23.73
2018-01-23T18:40:03.434Z,21.43
2018-01-23T18:42:31.099Z,23.50
2018-01-23T18:44:58.796Z,18.50
2018-01-23T18:47:26.466Z,23.93
2018-01-23T18:49:54.868Z,36.87
2018-01-23T18:52:23.307Z,29.77
2018-01-23T18:54:51.571Z,107.10
2018-01-23T18:57:19.287Z,98.57
2018-01-23T18:59:47.012Z,151.60
2018-01-23T19:02:14.803Z,130.90
2018-01-23T19:04:42.513Z,124.43
2018-01-23T19:07:11.667Z,137.53
2018-01-23T19:09:39.460Z,127.03
2018-01-23T19:12:07.148Z,114.70
2018-01-23T19:14:35.638Z,93.93
2018-01-23T19:17:05.249Z,60.50
2018-01-23T19:19:33.720Z,31.30
2018-01-23T19:22:02.357Z,71.00
2018-01-23T19:24:30.095Z,83.87
2018-01-23T19:26:59.029Z,37.33
2018-01-23T19:29:26.902Z,27.33
2018-01-23T19:31:54.774Z,41.47
2018-01-23T19:34:22.575Z,50.27
2018-01-23T19:36:50.326Z,23.20
2018-01-23T19:39:18.024Z,22.27
2018-01-23T19:41:46.133Z,19.90
2018-01-23T19:44:14.026Z,13.90
2018-01-23T19:46:42.721Z,15.13
2018-01-23T19:49:10.490Z,9.23
2018-01-23T19:51:38.237Z,12.00
2018-01-23T19:54:06.461Z,15.17
2018-01-23T19:56:34.142Z,11.00
2018-01-23T19:59:02.612Z,7.77
2018-01-23T20:01:30.325Z,11.10
2018-01-23T20:03:58.792Z,7.67
2018-01-23T20:06:27.275Z,11.17
2018-01-23T20:08:55.175Z,8.73
2018-01-23T20:11:23.879Z,16.17
2018-01-23T20:13:51.616Z,17.20
2018-01-23T20:16:20.248Z,20.80
2018-01-23T20:18:47.973Z,54.07
2018-01-23T20:21:16.423Z,57.30
2018-01-23T20:23:44.158Z,37.17
2018-01-23T20:26:12.244Z,53.70
2018-01-23T20:28:39.986Z,18.33
2018-01-23T20:31:08.485Z,23.73
2018-01-23T20:33:36.272Z,32.70
2018-01-23T20:36:04.870Z,21.17
2018-01-23T20:38:32.605Z,17.40
2018-01-23T20:41:00.517Z,14.93
2018-01-23T20:43:28.752Z,6.43
2018-01-23T20:45:56.476Z,10.23
2018-01-23T20:48:24.139Z,10.67
2018-01-23T20:50:51.869Z,9.57
2018-01-23T20:53:19.573Z,7.43
2018-01-23T20:55:47.292Z,6.50
2018-01-23T20:58:15.070Z,7.57
2018-01-23T21:00:42.753Z,8.80
2018-01-23T21:03:10.450Z,9.60
2018-01-23T21:05:39.007Z,8.70
2018-01-23T21:08:06.685Z,8.90
2018-01-23T21:10:34.350Z,9.47
2018-01-23T21:13:02.050Z,9.40
2018-01-23T21:15:31.315Z,9.30
2018-01-23T21:17:59.016Z,5.23
2018-01-23T21:20:26.728Z,8.67
2018-01-23T21:22:54.641Z,10.03
2018-01-23T21:25:22.307Z,13.83
2018-01-23T21:27:49.956Z,46.40
2018-01-23T21:30:17.721Z,40.20
2018-01-23T21:32:45.395Z,49.70
2018-01-23T21:35:13.068Z,31.83
2018-01-23T21:37:40.691Z,34.47
2018-01-23T21:40:09.118Z,36.87
2018-01-23T21:42:36.984Z,39.10
2018-01-23T21:45:04.620Z,44.73
2018-01-23T21:47:33.033Z,37.03
2018-01-23T21:50:00.845Z,15.47
2018-01-23T21:52:28.490Z,24.03
2018-01-23T21:54:56.108Z,14.40
2018-01-23T21:57:24.536Z,12.50
2018-01-23T21:59:52.189Z,43.93
2018-01-23T22:02:19.856Z,14.17
2018-01-23T22:04:47.496Z,9.63
2018-01-23T22:07:15.902Z,12.53
2018-01-23T22:09:43.538Z,13.43
2018-01-23T22:12:11.908Z,9.53
2018-01-23T22:14:40.319Z,9.30
2018-01-23T22:17:08.700Z,11.63
2018-01-23T22:19:37.062Z,9.40
2018-01-23T22:22:04.680Z,11.13
2018-01-23T22:24:32.283Z,13.17
2018-01-23T22:27:00.671Z,12.20
2018-01-23T22:29:28.259Z,16.57
2018-01-23T22:31:56.658Z,12.17
2018-01-23T22:34:24.343Z,16.10
2018-01-23T22:36:51.939Z,14.80
2018-01-23T22:39:19.568Z,15.90
2018-01-23T22:41:47.185Z,19.17
2018-01-23T22:44:15.599Z,13.73
2018-01-23T22:46:43.194Z,14.50
2018-01-23T22:49:10.799Z,19.63
2018-01-23T22:51:38.408Z,13.50
2018-01-23T22:54:06.430Z,16.23
2018-01-23T22:56:34.788Z,16.90
2018-01-23T22:59:02.409Z,17.43
2018-01-23T23:01:30.786Z,25.90
2018-01-23T23:03:59.221Z,23.43
2018-01-23T23:06:26.837Z,14.17
2018-01-23T23:08:55.214Z,14.73
2018-01-23T23:11:22.829Z,14.40
2018-01-23T23:13:50.428Z,15.63
2018-01-23T23:16:18.049Z,12.23
2018-01-23T23:18:45.647Z,14.77
2018-01-23T23:21:13.243Z,18.23
2018-01-23T23:23:41.642Z,15.90
2018-01-23T23:26:10.019Z,13.43
2018-01-23T23:28:38.393Z,29.77
2018-01-23T23:31:06.758Z,31.57
2018-01-23T23:33:35.112Z,13.53
2018-01-23T23:36:02.732Z,12.97
2018-01-23T23:38:31.099Z,15.33
2018-01-23T23:40:58.714Z,20.23
2018-01-23T23:43:26.508Z,13.10
2018-01-23T23:45:54.140Z,17.40
2018-01-23T23:48:21.748Z,13.80
2018-01-23T23:50:49.346Z,13.57
2018-01-23T23:53:17.716Z,13.13
2018-01-23T23:55:45.317Z,12.10
2018-01-23T23:58:12.948Z,15.20
